Terminal Aerodrome Forecast
Issued by NWS Upton, NY

Home | Current Version | Previous Version | Text Only | Print | Product List | Glossary On
Versions: 1 2 3 4 5 6 7 8 9 10 11 12 13 14 15 16 17 18 19 20 21 22 23 24 25 26 27 28 29 30 31 32 33 34 35 36 37 38 39 40 41
000
FTUS41 KOKX 302022 AAB
TAFISP
TAF AMD
KISP 302022Z 3020/0118 12014KT P6SM FEW025 BKN040
      TEMPO 3023/3024 BKN025
     FM010000 12013KT P6SM SCT015 OVC025
     FM010200 12011KT 6SM BR FEW008 OVC015
     FM010400 12009KT 1 1/2SM -DZ BR OVC005
     FM010900 14005KT 1/2SM -DZ FG OVC003
     FM011500 19012KT 4SM BR BKN015=

USA.gov is the U.S. government's official web portal to all federal, state and local government web resources and services.